WetterOnline ( https://www.wetteronline.de )

Wetter aktuell Aschaffenburg

Aktuelles Wetter: Neuhütten/Spessart (340m)

6-stündlich | Neueste Meldungen
Ortszeit Temperatur Wetter
Fr, 28.01. 13:00 3.9° C bewölkt
Fr, 28.01. 7:00 1.7° C leichter Regen
Fr, 28.01. 1:00 2.2° C bedeckt
Do, 27.01. 19:00 1.2° C bedeckt
Do, 27.01. 13:00 0.2° C bedeckt
Do, 27.01. 7:00 -1.6° C bedeckt
Do, 27.01. 1:00 -1.1° C bedeckt
Mi, 26.01. 19:00 -0.7° C bedeckt
Ortszeit Temperatur Wetter
Fr, 28.01. 13:00 3.9° C bewölkt
Fr, 28.01. 12:50 3.9° C bewölkt
Fr, 28.01. 12:40 3.7° C bewölkt
Fr, 28.01. 12:30 3.7° C bewölkt
Fr, 28.01. 12:20 3.7° C bewölkt
Fr, 28.01. 12:10 3.8° C bewölkt
Fr, 28.01. 12:00 3.7° C bewölkt
Fr, 28.01. 11:30 2.5° C bewölkt
Fr, 28.01. 11:00 1.8° C bedeckt
Fr, 28.01. 10:30 2.0° C bedeckt
Fr, 28.01. 10:00 1.9° C bedeckt
Ortszeit Relative Feuchte Sichtweite
Fr, 28.01. 13:00 76% 45 km
Fr, 28.01. 7:00 95% 8 km
Fr, 28.01. 1:00 96% 21 km
Do, 27.01. 19:00 94% 16 km
Do, 27.01. 13:00 91% 16 km
Do, 27.01. 7:00 94% 8 km
Do, 27.01. 1:00 88% 19 km
Mi, 26.01. 19:00 96% 7 km
Ortszeit Relative Feuchte Sichtweite
Fr, 28.01. 13:00 76% 45 km
Fr, 28.01. 12:50 76% -
Fr, 28.01. 12:40 76% -
Fr, 28.01. 12:30 81% 30 km
Fr, 28.01. 12:20 81% -
Fr, 28.01. 12:10 79% -
Fr, 28.01. 12:00 81% 40 km
Fr, 28.01. 11:30 90% 35 km
Fr, 28.01. 11:00 92% 35 km
Fr, 28.01. 10:30 90% 30 km
Fr, 28.01. 10:00 90% 40 km
Ortszeit Niederschlagsmenge Niederschlagsart
Fr, 28.01. 13:00 0.2 l/m2 in 6 Std. Regen
Fr, 28.01. 7:00 2 l/m2 in 12 Std. Schnee, Regen
Fr, 28.01. 1:00 2 l/m2 in 6 Std. Schnee, Regen
Do, 27.01. 19:00 0.2 l/m2 in 12 Std. Regen
Do, 27.01. 13:00 0.0 l/m2 in 6 Std. -
Do, 27.01. 7:00 0.0 l/m2 in 12 Std. -
Do, 27.01. 1:00 0.0 l/m2 in 6 Std. -
Mi, 26.01. 19:00 0.1 l/m2 in 12 Std. Schnee, Regen
Ortszeit Niederschlagsmenge Niederschlagsart
Fr, 28.01. 13:00 0.0 l/m2 in 1 Std. Regen
Fr, 28.01. 12:50 keine Meldung -
Fr, 28.01. 12:40 keine Meldung -
Fr, 28.01. 12:30 0.0 l/m2 in 1 Std. -
Fr, 28.01. 12:20 keine Meldung -
Fr, 28.01. 12:10 keine Meldung -
Fr, 28.01. 12:00 0.1 l/m2 in 1 Std. Regen
Fr, 28.01. 11:30 0.1 l/m2 in 1 Std. Schneeregen
Fr, 28.01. 11:00 0.1 l/m2 in 1 Std. Regen
Fr, 28.01. 10:30 0.0 l/m2 in 1 Std. -
Fr, 28.01. 10:00 0.0 l/m2 in 1 Std. Regen
Ortszeit Stärke Spitze Richtung
km/h Bft. km/h Grad Sektor
Fr, 28.01. 13:00 14 3 25 270° W
Fr, 28.01. 7:00 7 2 43 290° W
Fr, 28.01. 1:00 18 3 61 270° W
Do, 27.01. 19:00 22 4 46 270° W
Do, 27.01. 13:00 18 3 40 240° SW
Do, 27.01. 7:00 13 3 35 260° W
Do, 27.01. 1:00 18 3 40 260° W
Mi, 26.01. 19:00 7 2 22 280° W
Ortszeit Stärke Spitze Richtung
km/h Bft. km/h Grad Sektor
Fr, 28.01. 13:00 14 3 25 270° W
Fr, 28.01. 12:50 14 3 - 270° W
Fr, 28.01. 12:40 9 2 - 270° W
Fr, 28.01. 12:30 11 2 25 280° W
Fr, 28.01. 12:20 11 2 - 280° W
Fr, 28.01. 12:10 7 2 - 290° W
Fr, 28.01. 12:00 13 3 22 280° W
Fr, 28.01. 11:30 9 2 19 240° SW
Fr, 28.01. 11:00 11 2 25 270° W
Fr, 28.01. 10:30 13 3 24 260° W
Fr, 28.01. 10:00 11 2 22 240° SW
Ortszeit Untergrenze Bedeckung Gattung
total tief tief mittel hoch
Fr, 28.01. 13:00 720 m 7/8 7/8 - - -
Fr, 28.01. 7:00 210 m 8/8 8/8 - - -
Fr, 28.01. 1:00 180 m 8/8 8/8 - - -
Do, 27.01. 19:00 150 m 8/8 8/8 - - -
Do, 27.01. 13:00 180 m 8/8 8/8 - - -
Do, 27.01. 7:00 150 m 8/8 8/8 - - -
Do, 27.01. 1:00 240 m 8/8 8/8 - - -
Mi, 26.01. 19:00 150 m 8/8 8/8 - - -
Ortszeit Bedeckungsgrad in Achtel und Wolkenuntergrenze
Fr, 28.01. 13:00 2(720m) 7(1200m) 7(6000m)
Fr, 28.01. 12:50 2(720m) 7(1200m) 7(6000m)
Fr, 28.01. 12:40 7
Fr, 28.01. 12:30 1(570m) 3(810m) 7(1290m)
Fr, 28.01. 12:20 1(570m) 3(810m) 7(1290m)
Fr, 28.01. 12:10 7
Fr, 28.01. 12:00 3(570m) 4(780m) 7(1320m)
Fr, 28.01. 11:30 3(240m) 7(600m) 7(780m)
Fr, 28.01. 11:00 6(240m) 7(330m) 8(1230m)
Fr, 28.01. 10:30 2(240m) 7(660m) 8(1260m)
Fr, 28.01. 10:00 3(300m) 7(480m) 8(1350m)
Ortszeit Luftdruck NN (hPa) Tendenz (hPa in 3 Std.)
Fr, 28.01. 13:00 1034 + 0,5
Fr, 28.01. 7:00 1031 + 2,0
Fr, 28.01. 1:00 1027 + 1,4
Do, 27.01. 19:00 1025 - 0,6
Do, 27.01. 13:00 1027 - 1,0
Do, 27.01. 7:00 1029 - 0,9
Do, 27.01. 1:00 1032 - 0,8
Mi, 26.01. 19:00 1033 + 0,1
Ortszeit Luftdruck NN (hPa) Tendenz (hPa in 3 Std.)
Fr, 28.01. 13:00 1034 + 0,5
Fr, 28.01. 12:50 1034 keine Meldung
Fr, 28.01. 12:40 1034 keine Meldung
Fr, 28.01. 12:30 1034 + 1,3
Fr, 28.01. 12:20 1034 keine Meldung
Fr, 28.01. 12:10 1034 keine Meldung
Fr, 28.01. 12:00 1034 + 1,4
Fr, 28.01. 11:30 1034 + 1,7
Fr, 28.01. 11:00 1034 + 2,0
Fr, 28.01. 10:30 1034 + 2,0
Fr, 28.01. 10:00 1034 + 2,2
Ortszeit Schneehöhe (cm)
Fr, 28.01. 13:00 0
Fr, 28.01. 7:00 0
Fr, 28.01. 1:00 0
Do, 27.01. 19:00 0
Do, 27.01. 13:00 0
Do, 27.01. 7:00 0
Do, 27.01. 1:00 0
Mi, 26.01. 19:00 0
Ortszeit Schneehöhe (cm)
Fr, 28.01. 13:00 0
Fr, 28.01. 12:50 0
Fr, 28.01. 12:40 0
Fr, 28.01. 12:30 0
Fr, 28.01. 12:20 0
Fr, 28.01. 12:10 0
Fr, 28.01. 12:00 0
Fr, 28.01. 11:30 0
Fr, 28.01. 11:00 0
Fr, 28.01. 10:30 0
Fr, 28.01. 10:00 0
Link zu dieser Seite / Seite empfehlen

Das Wetter in ...